Time;durP1;ratioP1;P1;durP2;ratioP2;P2;SDS_P1;SDS_P2;PMS_P1;PMS_P2;Temp;Humidity;BMP_temperature;BMP_pressure;BME280_temperature;BME280_humidity;BME280_pressure;Samples;Min_cycle;Max_cycle;Signal;HPM_P1;HPM_P2
2022/05/26 00:00:01;;;;;;;3.37;1.73;;;22.20;42.70;;;;;;5048995;28;20450;-89
2022/05/26 00:02:28;;;;;;;2.17;1.20;;;22.20;43.10;;;;;;5051633;28;20448;-89
2022/05/26 00:04:55;;;;;;;2.57;1.30;;;22.10;42.60;;;;;;5094907;27;20833;-89
2022/05/26 00:07:22;;;;;;;1.53;1.43;;;21.80;42.90;;;;;;5075209;28;20479;-88
2022/05/26 00:09:51;;;;;;;1.40;1.30;;;21.60;42.70;;;;;;5064114;28;20452;-91
2022/05/26 00:12:19;;;;;;;1.40;1.30;;;21.60;43.10;;;;;;5093383;28;21054;-89
2022/05/26 00:14:46;;;;;;;1.43;1.30;;;21.70;42.70;;;;;;5058073;28;20822;-90
2022/05/26 00:17:13;;;;;;;1.20;1.10;;;21.80;42.90;;;;;;5073511;28;20463;-89
2022/05/26 00:19:40;;;;;;;1.40;1.30;;;21.80;42.30;;;;;;5056675;28;20474;-90
2022/05/26 00:22:09;;;;;;;1.50;1.40;;;21.80;42.80;;;;;;5065539;28;20442;-89
2022/05/26 00:24:36;;;;;;;2.90;1.50;;;21.80;42.60;;;;;;5065622;28;21058;-91
2022/05/26 00:27:05;;;;;;;1.30;1.20;;;21.80;42.50;;;;;;5091800;28;21050;-89
2022/05/26 00:29:34;;;;;;;1.93;1.50;;;21.80;42.10;;;;;;5066218;28;20451;-90
2022/05/26 00:32:01;;;;;;;1.60;1.50;;;21.70;41.70;;;;;;5067806;28;20524;-90
2022/05/26 00:34:28;;;;;;;1.97;1.50;;;21.60;41.50;;;;;;5074348;28;20465;-89
2022/05/26 00:36:55;;;;;;;2.87;1.30;;;21.70;42.00;;;;;;5079203;28;20550;-88
2022/05/26 00:39:24;;;;;;;1.17;1.07;;;21.60;40.50;;;;;;5068491;28;20451;-89
2022/05/26 00:41:54;;;;;;;1.30;1.10;;;21.70;39.90;;;;;;5046447;28;20466;-92
2022/05/26 00:44:23;;;;;;;2.37;1.00;;;21.60;39.10;;;;;;5074956;28;20475;-91
2022/05/26 00:46:55;;;;;;;1.47;1.00;;;21.50;39.30;;;;;;5063701;28;20792;-90
2022/05/26 00:49:28;;;;;;;2.60;1.30;;;21.60;39.40;;;;;;5057979;28;20861;-88
2022/05/26 00:51:57;;;;;;;1.40;1.10;;;21.60;38.80;;;;;;5078467;28;20447;-89
2022/05/26 00:54:26;;;;;;;1.87;1.10;;;21.50;38.80;;;;;;5081318;28;21024;-88
2022/05/26 00:57:00;;;;;;;2.20;1.10;;;21.40;40.70;;;;;;5062743;28;20459;-91
2022/05/26 00:59:38;;;;;;;1.23;1.13;;;21.40;39.80;;;;;;5070599;28;20455;-89
2022/05/26 01:02:06;;;;;;;1.43;1.20;;;21.40;40.90;;;;;;5060205;28;20756;-92
2022/05/26 01:04:37;;;;;;;1.73;1.17;;;21.30;40.30;;;;;;5060230;28;20463;-88
2022/05/26 01:07:12;;;;;;;3.00;1.40;;;21.20;40.10;;;;;;5076916;28;20482;-92
2022/05/26 01:09:39;;;;;;;1.50;1.30;;;21.20;42.10;;;;;;5053958;28;20451;-88
2022/05/26 01:12:07;;;;;;;2.40;1.40;;;21.10;43.00;;;;;;5052106;28;20533;-92
2022/05/26 01:14:40;;;;;;;2.33;1.40;;;21.10;41.90;;;;;;5054168;28;20946;-90
2022/05/26 01:17:17;;;;;;;2.87;1.50;;;21.10;41.00;;;;;;5067954;28;20467;-90
2022/05/26 01:20:12;;;;;;;1.33;1.17;;;21.20;40.90;;;;;;5065644;28;20827;-89
2022/05/26 01:23:16;;;;;;;1.30;1.17;;;21.30;40.40;;;;;;5077629;28;20452;-92
2022/05/26 01:26:31;;;;;;;1.60;1.20;;;21.10;39.30;;;;;;5067850;28;20573;-92
2022/05/26 01:29:43;;;;;;;2.70;1.60;;;21.20;39.70;;;;;;5045614;28;21230;-88
2022/05/26 01:32:18;;;;;;;1.97;1.23;;;21.20;39.10;;;;;;5043592;28;20797;-89
2022/05/26 01:34:56;;;;;;;2.50;1.40;;;21.00;39.50;;;;;;5074071;28;20455;-89
2022/05/26 01:37:32;;;;;;;2.37;1.40;;;21.10;39.80;;;;;;5084909;28;20467;-89
2022/05/26 01:40:09;;;;;;;1.40;1.30;;;21.30;39.40;;;;;;5065538;28;20458;-92
2022/05/26 01:42:46;;;;;;;4.60;1.50;;;21.40;38.80;;;;;;5062028;28;20463;-88
2022/05/26 01:45:24;;;;;;;2.30;1.23;;;21.50;39.20;;;;;;5078576;28;20490;-91
2022/05/26 01:48:00;;;;;;;1.63;1.53;;;21.50;38.70;;;;;;5064175;28;20494;-92
2022/05/26 01:50:34;;;;;;;4.67;1.67;;;21.40;38.80;;;;;;5068088;28;20504;-90
2022/05/26 01:53:10;;;;;;;1.30;1.20;;;21.40;39.10;;;;;;5059007;28;20443;-89
2022/05/26 01:55:46;;;;;;;2.30;1.30;;;21.40;39.40;;;;;;5040090;28;20517;-90
2022/05/26 01:58:21;;;;;;;2.67;1.43;;;21.50;39.10;;;;;;5076851;28;20466;-91
2022/05/26 02:00:49;;;;;;;1.63;1.30;;;21.40;39.40;;;;;;5071086;28;20519;-89
2022/05/26 02:03:21;;;;;;;1.53;1.20;;;21.40;39.30;;;;;;5079231;28;20458;-91
2022/05/26 02:05:52;;;;;;;1.73;1.37;;;21.50;39.20;;;;;;5082558;28;20557;-90
2022/05/26 02:08:26;;;;;;;4.30;1.30;;;21.40;38.90;;;;;;5075546;28;20487;-90
2022/05/26 02:10:58;;;;;;;2.77;1.73;;;21.30;39.10;;;;;;5059072;28;20451;-90
2022/05/26 02:13:31;;;;;;;1.40;1.20;;;21.50;39.50;;;;;;5053768;28;20461;-88
2022/05/26 02:16:03;;;;;;;1.60;1.30;;;21.50;39.30;;;;;;5073899;28;20515;-88
2022/05/26 02:18:35;;;;;;;1.57;1.47;;;21.50;39.10;;;;;;5075288;28;20444;-91
2022/05/26 02:21:08;;;;;;;2.83;1.50;;;21.60;38.80;;;;;;5066175;28;20434;-89
2022/05/26 02:23:38;;;;;;;4.10;1.60;;;21.60;38.80;;;;;;5068321;28;20452;-89
2022/05/26 02:26:06;;;;;;;3.30;1.57;;;21.60;38.70;;;;;;5063103;28;20493;-87
2022/05/26 02:29:51;;;;;;;2.23;1.40;;;21.60;39.10;;;;;;5077238;28;20444;-89
2022/05/26 02:31:24;;;;;;;1.50;1.30;;;21.60;39.10;;;;;;5048954;28;20455;-88
2022/05/26 02:33:55;;;;;;;2.50;1.40;;;21.60;39.30;;;;;;5067107;28;20543;-88
2022/05/26 02:36:24;;;;;;;3.17;1.47;;;21.60;38.90;;;;;;5065857;28;21357;-89
2022/05/26 02:38:51;;;;;;;1.40;1.30;;;21.60;38.80;;;;;;5063631;28;20447;-88
2022/05/26 02:41:18;;;;;;;2.10;1.27;;;21.60;38.50;;;;;;5073839;28;20460;-90
2022/05/26 02:43:47;;;;;;;2.80;1.57;;;21.40;38.80;;;;;;5075267;28;20466;-88
2022/05/26 02:46:24;;;;;;;3.13;1.40;;;21.30;38.80;;;;;;5073921;28;20456;-89
2022/05/26 02:49:07;;;;;;;1.33;1.10;;;21.20;38.70;;;;;;5051365;28;20471;-94
2022/05/26 02:51:40;;;;;;;1.87;1.37;;;20.90;39.30;;;;;;5046622;28;20965;-90
2022/05/26 02:54:22;;;;;;;3.10;1.20;;;21.00;39.90;;;;;;5076035;28;20439;-88
2022/05/26 02:56:59;;;;;;;2.40;1.07;;;21.00;40.00;;;;;;5065841;28;20661;-88
2022/05/26 02:59:32;;;;;;;5.03;1.50;;;21.00;40.30;;;;;;5075225;28;20535;-89
2022/05/26 03:02:04;;;;;;;1.93;1.63;;;21.00;39.30;;;;;;5073189;28;20459;-88
2022/05/26 03:04:40;;;;;;;1.20;0.90;;;21.10;39.30;;;;;;5066869;28;20559;-91
2022/05/26 03:07:12;;;;;;;4.77;1.40;;;21.10;39.50;;;;;;5058833;28;20556;-89
2022/05/26 03:09:42;;;;;;;4.20;1.10;;;21.10;39.20;;;;;;5062067;28;20452;-89
2022/05/26 03:12:22;;;;;;;1.50;1.30;;;20.90;39.10;;;;;;5062691;28;20458;-90
2022/05/26 03:14:49;;;;;;;1.40;1.00;;;20.90;39.30;;;;;;5069256;28;20452;-90
2022/05/26 03:17:16;;;;;;;1.20;1.10;;;21.00;39.40;;;;;;5075258;28;20471;-90
2022/05/26 03:19:45;;;;;;;2.30;1.00;;;21.10;39.30;;;;;;5041270;28;20482;-88
2022/05/26 03:22:12;;;;;;;1.13;1.00;;;21.20;39.80;;;;;;5072648;28;20435;-91
2022/05/26 03:24:39;;;;;;;1.20;1.10;;;21.20;39.20;;;;;;5051576;28;20468;-89
2022/05/26 03:27:07;;;;;;;1.53;1.20;;;21.20;39.00;;;;;;5050617;28;20478;-91
2022/05/26 03:29:35;;;;;;;1.27;1.10;;;21.10;39.10;;;;;;5077952;28;20444;-89
2022/05/26 03:32:02;;;;;;;1.63;1.10;;;21.10;39.80;;;;;;5080282;28;20451;-88
2022/05/26 03:42:45;;;;;;;1.10;1.00;;;21.00;40.00;;;;;;5068288;28;20435;-88
2022/05/26 03:45:14;;;;;;;4.17;1.47;;;21.20;40.00;;;;;;5088029;28;21003;-89
2022/05/26 03:47:41;;;;;;;1.17;0.97;;;21.40;40.20;;;;;;5076905;28;20764;-89
2022/05/26 03:50:09;;;;;;;1.10;1.00;;;21.50;41.00;;;;;;5067070;28;20481;-89
2022/05/26 03:52:38;;;;;;;1.10;1.00;;;21.50;40.60;;;;;;5073707;28;21031;-88
2022/05/26 03:55:06;;;;;;;2.70;1.03;;;21.60;41.20;;;;;;5075788;28;20810;-88
2022/05/26 03:57:33;;;;;;;3.13;1.40;;;21.60;41.30;;;;;;5068834;28;20565;-88
2022/05/26 04:00:00;;;;;;;3.67;0.93;;;21.60;40.70;;;;;;5079837;27;20537;-89
2022/05/26 04:02:27;;;;;;;1.07;0.97;;;21.70;40.80;;;;;;5056927;28;20471;-89
2022/05/26 04:04:56;;;;;;;3.10;1.37;;;21.70;40.70;;;;;;5065633;28;20496;-91
2022/05/26 04:07:23;;;;;;;1.83;1.43;;;21.70;41.10;;;;;;5074013;28;20508;-90
2022/05/26 04:09:51;;;;;;;2.47;1.30;;;21.60;40.30;;;;;;5082416;28;20450;-90
2022/05/26 04:12:18;;;;;;;4.43;1.20;;;21.50;40.70;;;;;;5065790;28;21154;-88
2022/05/26 04:14:46;;;;;;;3.10;1.20;;;21.30;41.50;;;;;;5054737;28;20438;-89
2022/05/26 04:17:14;;;;;;;1.00;0.90;;;21.20;41.20;;;;;;5043856;28;20459;-90
2022/05/26 04:19:41;;;;;;;4.80;1.20;;;21.20;41.70;;;;;;5082144;28;20483;-89
2022/05/26 04:22:18;;;;;;;1.40;1.03;;;21.10;41.10;;;;;;5053896;28;20455;-89
2022/05/26 04:24:47;;;;;;;4.00;1.07;;;21.10;41.50;;;;;;5080429;28;20523;-90
2022/05/26 04:27:18;;;;;;;4.50;1.10;;;20.90;42.00;;;;;;5067367;28;20467;-90
2022/05/26 04:29:45;;;;;;;1.73;1.00;;;20.90;41.60;;;;;;5098934;28;20669;-88
2022/05/26 04:32:13;;;;;;;2.47;1.10;;;21.10;42.40;;;;;;5066041;28;20449;-88
2022/05/26 04:34:40;;;;;;;1.67;1.10;;;21.20;41.60;;;;;;5068518;28;21018;-91
2022/05/26 04:37:08;;;;;;;1.00;0.80;;;21.30;42.00;;;;;;5073345;28;20513;-88
2022/05/26 04:39:35;;;;;;;1.10;1.00;;;21.50;42.50;;;;;;5069736;28;20451;-90
2022/05/26 04:42:04;;;;;;;2.10;1.10;;;21.50;42.50;;;;;;5057585;28;20492;-91
2022/05/26 04:44:35;;;;;;;1.97;0.90;;;21.50;42.50;;;;;;5068133;28;20521;-89
2022/05/26 04:47:03;;;;;;;1.10;0.90;;;21.60;42.90;;;;;;5052055;28;20483;-90
2022/05/26 04:49:30;;;;;;;1.80;1.00;;;21.50;42.50;;;;;;5044340;28;20447;-88
2022/05/26 04:51:58;;;;;;;1.00;0.90;;;21.50;43.40;;;;;;5066513;28;20440;-88
2022/05/26 04:54:26;;;;;;;1.13;0.97;;;21.40;43.00;;;;;;5094161;28;20459;-91
2022/05/26 04:56:57;;;;;;;3.63;1.10;;;21.10;42.20;;;;;;5053064;28;20477;-89
2022/05/26 04:59:24;;;;;;;0.83;0.80;;;21.10;42.90;;;;;;5066246;28;20479;-89
2022/05/26 05:01:52;;;;;;;1.10;1.00;;;21.20;42.60;;;;;;5041282;28;20503;-89
2022/05/26 05:04:22;;;;;;;3.90;1.00;;;21.30;42.80;;;;;;5067273;28;20446;-88
2022/05/26 05:06:49;;;;;;;2.17;1.10;;;21.30;42.60;;;;;;5067267;28;20521;-89
2022/05/26 05:09:16;;;;;;;1.43;1.10;;;21.40;42.70;;;;;;5064342;28;20808;-89
2022/05/26 05:11:44;;;;;;;1.30;1.10;;;21.30;42.50;;;;;;5054763;28;20461;-89
2022/05/26 05:14:11;;;;;;;1.47;1.10;;;21.30;42.40;;;;;;5049352;28;20448;-88
2022/05/26 05:16:42;;;;;;;4.83;1.10;;;21.30;42.50;;;;;;5052697;28;20463;-89
2022/05/26 05:19:11;;;;;;;1.07;0.97;;;21.20;42.90;;;;;;5065141;28;21065;-88
2022/05/26 05:21:45;;;;;;;1.00;0.80;;;21.10;43.10;;;;;;5083548;28;20455;-91
2022/05/26 05:24:19;;;;;;;3.13;1.30;;;21.10;43.30;;;;;;5074131;28;21182;-88
2022/05/26 05:26:50;;;;;;;1.73;0.90;;;21.00;43.50;;;;;;5050912;28;20561;-88
2022/05/26 05:29:22;;;;;;;1.10;0.97;;;20.90;43.30;;;;;;5064564;28;20451;-89
2022/05/26 05:31:55;;;;;;;1.60;1.10;;;21.00;43.40;;;;;;5098671;28;20871;-89
2022/05/26 05:34:28;;;;;;;1.23;0.90;;;21.00;43.60;;;;;;5066938;28;20863;-89
2022/05/26 05:36:56;;;;;;;3.10;1.20;;;21.00;43.40;;;;;;5077290;28;20499;-91
2022/05/26 05:39:24;;;;;;;1.67;0.90;;;21.30;43.90;;;;;;5083923;28;20488;-90
2022/05/26 05:41:54;;;;;;;1.67;1.00;;;21.30;42.80;;;;;;5088248;28;20484;-90
2022/05/26 05:44:21;;;;;;;1.40;1.00;;;21.10;43.00;;;;;;5096101;28;20435;-89
2022/05/26 05:46:57;;;;;;;1.97;1.00;;;20.90;43.70;;;;;;5094521;28;20981;-88
2022/05/26 05:49:27;;;;;;;1.33;1.03;;;20.70;43.60;;;;;;5086902;28;20458;-91
2022/05/26 05:51:55;;;;;;;1.77;0.93;;;20.80;44.20;;;;;;5080381;28;20447;-89
2022/05/26 05:54:23;;;;;;;1.00;0.90;;;20.90;44.20;;;;;;5064263;28;20447;-89
2022/05/26 05:56:50;;;;;;;3.10;1.10;;;21.00;44.40;;;;;;5071117;28;20495;-89
2022/05/26 05:59:17;;;;;;;1.20;0.90;;;21.10;43.80;;;;;;5069294;28;20443;-89
2022/05/26 06:01:44;;;;;;;2.53;1.10;;;21.30;43.80;;;;;;5073465;28;20443;-88
2022/05/26 06:04:11;;;;;;;3.30;1.13;;;21.30;43.80;;;;;;5066216;28;20468;-88
2022/05/26 06:06:41;;;;;;;1.00;0.90;;;21.40;44.10;;;;;;5064017;28;20482;-89
2022/05/26 06:09:10;;;;;;;1.93;1.00;;;21.50;43.40;;;;;;5070447;28;20450;-88
2022/05/26 06:11:37;;;;;;;4.93;1.10;;;21.60;43.60;;;;;;5059582;28;20447;-88
2022/05/26 06:14:04;;;;;;;3.83;1.13;;;21.60;43.70;;;;;;5072582;28;20447;-89
2022/05/26 06:16:32;;;;;;;1.10;1.00;;;21.70;43.60;;;;;;5072919;28;20840;-89
2022/05/26 06:19:00;;;;;;;1.63;1.03;;;21.50;43.40;;;;;;5041045;28;22620;-89
2022/05/26 06:21:27;;;;;;;1.60;1.20;;;21.40;44.40;;;;;;5073934;28;20458;-88
2022/05/26 06:23:56;;;;;;;2.27;0.90;;;21.30;44.40;;;;;;5089677;28;20436;-88
2022/05/26 06:26:24;;;;;;;2.90;1.00;;;21.10;44.30;;;;;;5061671;28;20490;-88
2022/05/26 06:31:36;;;;;;;1.97;0.80;;;21.10;45.30;;;;;;5051594;28;21069;-89
2022/05/26 06:39:34;;;;;;;1.73;1.37;;;21.80;44.80;;;;;;5050905;28;20463;-90
2022/05/26 06:42:06;;;;;;;1.00;0.90;;;21.60;44.60;;;;;;5069895;28;20451;-88
2022/05/26 06:44:37;;;;;;;2.67;1.00;;;21.50;45.00;;;;;;5089045;28;20451;-88
2022/05/26 06:47:07;;;;;;;0.87;0.73;;;21.30;45.20;;;;;;5070944;28;20482;-89
2022/05/26 06:49:35;;;;;;;2.13;1.00;;;21.10;44.90;;;;;;5069051;28;20455;-86
2022/05/26 06:52:02;;;;;;;0.93;0.83;;;21.10;46.00;;;;;;5051232;28;20458;-87
2022/05/26 06:54:36;;;;;;;4.87;1.00;;;21.10;45.90;;;;;;5071118;28;21041;-88
2022/05/26 06:57:03;;;;;;;1.27;0.87;;;21.30;46.10;;;;;;5064015;28;20468;-91
2022/05/26 06:59:30;;;;;;;1.40;0.80;;;21.30;45.60;;;;;;5062622;28;20444;-88
2022/05/26 07:01:57;;;;;;;0.80;0.80;;;21.60;45.00;;;;;;5043027;28;20448;-88
2022/05/26 07:04:24;;;;;;;1.40;1.00;;;21.70;44.80;;;;;;5064956;28;20447;-87
2022/05/26 07:06:53;;;;;;;1.00;0.90;;;21.80;44.30;;;;;;5054753;28;20478;-90
2022/05/26 07:09:21;;;;;;;1.57;1.00;;;21.80;43.70;;;;;;5045805;28;20881;-87
2022/05/26 07:11:49;;;;;;;1.23;0.87;;;21.70;44.20;;;;;;5055234;28;20467;-87
2022/05/26 07:14:16;;;;;;;1.63;0.80;;;21.80;44.40;;;;;;5068873;28;20455;-88
2022/05/26 07:16:44;;;;;;;1.07;0.97;;;21.90;44.10;;;;;;5053202;28;21009;-88
2022/05/26 07:19:13;;;;;;;1.30;0.90;;;22.00;44.20;;;;;;5071365;28;20501;-86
2022/05/26 07:21:43;;;;;;;1.23;0.70;;;21.80;44.70;;;;;;5060473;28;20459;-88
2022/05/26 07:24:10;;;;;;;1.37;0.90;;;21.90;44.00;;;;;;5062364;28;20461;-88
2022/05/26 07:26:37;;;;;;;1.13;0.70;;;22.20;44.70;;;;;;5076420;28;20971;-87
2022/05/26 07:29:06;;;;;;;3.10;0.80;;;21.90;42.60;;;;;;5096105;28;20451;-89
2022/05/26 07:31:33;;;;;;;1.53;0.90;;;21.90;44.40;;;;;;5061271;28;21177;-88
2022/05/26 07:34:00;;;;;;;1.60;1.00;;;22.10;44.00;;;;;;5067812;28;20474;-88
2022/05/26 07:42:01;;;;;;;0.80;0.80;;;22.60;44.40;;;;;;5094004;28;20501;-88
2022/05/26 07:44:33;;;;;;;1.00;0.90;;;22.70;43.80;;;;;;5082214;28;20447;-88
2022/05/26 07:47:00;;;;;;;1.70;0.80;;;22.80;42.90;;;;;;5093564;28;20555;-88
2022/05/26 07:49:27;;;;;;;0.80;0.70;;;22.80;42.30;;;;;;5072743;28;20452;-86
2022/05/26 07:51:54;;;;;;;1.57;0.70;;;23.00;43.10;;;;;;5092290;28;20444;-90
2022/05/26 07:54:21;;;;;;;0.87;0.80;;;22.80;42.80;;;;;;5074286;28;20475;-90
2022/05/26 07:56:48;;;;;;;2.60;0.93;;;22.50;42.50;;;;;;5096043;28;20475;-87
2022/05/26 07:59:15;;;;;;;0.90;0.80;;;22.50;44.00;;;;;;5065023;28;20469;-89
2022/05/26 08:01:44;;;;;;;1.10;1.00;;;22.70;44.00;;;;;;5094197;28;20535;-89
2022/05/26 08:04:10;;;;;;;1.10;0.80;;;23.00;44.50;;;;;;5065846;28;20450;-88
2022/05/26 08:06:37;;;;;;;1.27;0.70;;;22.90;43.50;;;;;;5062103;28;20470;-88
2022/05/26 08:09:05;;;;;;;1.03;0.70;;;23.10;42.80;;;;;;5091662;28;20439;-92
2022/05/26 08:11:32;;;;;;;1.83;0.73;;;23.00;42.40;;;;;;5101468;28;20942;-88
2022/05/26 08:13:58;;;;;;;1.40;0.90;;;22.70;42.00;;;;;;5062674;28;20443;-86
2022/05/26 08:16:26;;;;;;;1.00;0.90;;;22.50;42.80;;;;;;5082936;28;20477;-88
2022/05/26 08:18:54;;;;;;;1.80;0.87;;;22.40;44.60;;;;;;5079077;28;20497;-88
2022/05/26 08:21:21;;;;;;;1.27;0.80;;;22.40;43.40;;;;;;5080598;28;20440;-88
2022/05/26 08:23:48;;;;;;;0.90;0.80;;;22.30;43.10;;;;;;5098712;28;20444;-88
2022/05/26 08:26:16;;;;;;;0.80;0.80;;;22.50;43.90;;;;;;5068499;28;20483;-87
2022/05/26 08:28:43;;;;;;;1.30;0.87;;;22.60;44.50;;;;;;5072357;28;20442;-88
2022/05/26 08:31:13;;;;;;;1.23;0.67;;;22.70;44.00;;;;;;5078395;28;20448;-87
2022/05/26 08:33:40;;;;;;;2.80;0.90;;;22.80;43.80;;;;;;5066235;28;20452;-91
2022/05/26 08:36:11;;;;;;;1.10;0.90;;;22.40;43.20;;;;;;5089410;28;21375;-89
2022/05/26 08:38:38;;;;;;;0.83;0.67;;;22.30;44.50;;;;;;5060111;28;20476;-88
2022/05/26 08:41:07;;;;;;;0.83;0.77;;;22.30;43.90;;;;;;5069796;28;20447;-88
2022/05/26 08:43:37;;;;;;;1.07;0.97;;;22.20;44.00;;;;;;5080171;28;20461;-88
2022/05/26 08:46:07;;;;;;;8.33;1.33;;;22.40;44.50;;;;;;5079719;28;20520;-87
2022/05/26 08:48:48;;;;;;;1.90;1.10;;;22.50;44.10;;;;;;5079903;28;20451;-88
2022/05/26 08:51:23;;;;;;;1.77;0.80;;;22.90;44.30;;;;;;5079213;28;20958;-88
2022/05/26 08:53:52;;;;;;;6.53;1.00;;;22.90;42.60;;;;;;5050959;28;20458;-87
2022/05/26 08:56:23;;;;;;;1.40;0.70;;;22.80;43.40;;;;;;5079728;28;20459;-87
2022/05/26 08:58:52;;;;;;;1.53;0.70;;;22.70;42.10;;;;;;5073138;28;20451;-87
2022/05/26 09:01:24;;;;;;;1.20;0.90;;;22.80;42.10;;;;;;5074135;28;20517;-89
2022/05/26 09:03:52;;;;;;;2.70;0.87;;;23.00;42.40;;;;;;5080333;28;20443;-87
2022/05/26 09:06:22;;;;;;;1.10;0.80;;;23.00;42.50;;;;;;5083707;28;20463;-89
2022/05/26 09:14:25;;;;;;;1.30;1.00;;;23.20;41.90;;;;;;5085168;28;21094;-88
2022/05/26 09:16:58;;;;;;;2.10;1.10;;;23.10;41.40;;;;;;5069248;28;20455;-88
2022/05/26 09:19:30;;;;;;;4.80;0.90;;;23.00;42.20;;;;;;5047211;28;20530;-87
2022/05/26 09:21:59;;;;;;;0.90;0.73;;;22.90;41.90;;;;;;5095864;28;20447;-86
2022/05/26 09:24:33;;;;;;;1.50;0.90;;;22.90;41.80;;;;;;5076874;28;20509;-88
2022/05/26 09:27:02;;;;;;;1.00;0.90;;;23.10;42.30;;;;;;5094789;28;20473;-87
2022/05/26 09:29:31;;;;;;;1.20;0.80;;;23.30;41.20;;;;;;5092108;28;20495;-88
2022/05/26 09:32:00;;;;;;;1.30;1.00;;;23.60;41.30;;;;;;5092880;28;20478;-86
2022/05/26 09:34:29;;;;;;;1.30;1.00;;;23.70;40.80;;;;;;5079048;28;20455;-89
2022/05/26 09:37:00;;;;;;;1.00;0.90;;;23.60;40.70;;;;;;5080806;28;20479;-88
2022/05/26 09:39:34;;;;;;;0.80;0.70;;;23.30;39.70;;;;;;5064868;28;20464;-88
2022/05/26 09:42:02;;;;;;;5.63;0.90;;;23.10;41.00;;;;;;5078841;28;20483;-87
2022/05/26 09:44:38;;;;;;;1.20;1.00;;;23.20;40.20;;;;;;5071720;28;20444;-87
2022/05/26 09:47:24;;;;;;;3.13;2.57;;;23.30;38.80;;;;;;5064394;28;20463;-88
2022/05/26 09:49:55;;;;;;;1.00;0.90;;;23.00;39.50;;;;;;5056697;28;20989;-87
2022/05/26 09:52:28;;;;;;;1.00;0.73;;;23.20;40.10;;;;;;5077733;28;20600;-88
2022/05/26 09:55:09;;;;;;;1.00;0.90;;;23.40;39.70;;;;;;5058097;28;20451;-88
2022/05/26 09:57:36;;;;;;;2.23;0.83;;;23.50;40.30;;;;;;5059775;28;20502;-89
2022/05/26 10:00:18;;;;;;;1.10;0.97;;;23.70;40.80;;;;;;5093443;28;20451;-88
2022/05/26 10:02:48;;;;;;;1.00;0.90;;;23.90;40.70;;;;;;5081157;28;20948;-88
2022/05/26 10:05:23;;;;;;;1.57;0.80;;;24.10;39.90;;;;;;5075143;28;20427;-89
2022/05/26 10:08:02;;;;;;;1.20;1.00;;;24.20;39.70;;;;;;5069376;28;20477;-88
2022/05/26 10:10:35;;;;;;;1.00;0.90;;;24.20;38.80;;;;;;5060176;28;20489;-88
2022/05/26 10:13:23;;;;;;;1.10;0.83;;;24.30;39.00;;;;;;5069448;28;20455;-88
2022/05/26 10:15:58;;;;;;;3.80;1.00;;;24.40;39.40;;;;;;5085389;28;20455;-88
2022/05/26 10:18:57;;;;;;;2.63;0.93;;;24.20;39.90;;;;;;5096341;28;20942;-88
2022/05/26 10:21:42;;;;;;;1.00;0.83;;;24.40;39.10;;;;;;5099138;28;20439;-88
2022/05/26 10:24:54;;;;;;;1.07;0.87;;;24.50;38.60;;;;;;5096569;28;20949;-88
2022/05/26 10:27:37;;;;;;;2.13;0.80;;;24.20;39.20;;;;;;5047644;28;20475;-88
2022/05/26 10:30:29;;;;;;;1.37;0.90;;;24.00;36.90;;;;;;5080203;28;20469;-88
2022/05/26 10:33:11;;;;;;;1.23;0.90;;;24.10;38.00;;;;;;5083574;28;20443;-91
2022/05/26 10:35:47;;;;;;;1.47;0.87;;;23.90;37.80;;;;;;5075258;28;20451;-87
2022/05/26 10:38:26;;;;;;;1.73;0.93;;;23.80;37.10;;;;;;5064296;28;20451;-91
2022/05/26 10:41:02;;;;;;;1.77;0.70;;;23.80;37.30;;;;;;5094229;28;20513;-88
2022/05/26 10:43:39;;;;;;;0.80;0.70;;;23.80;38.00;;;;;;5051356;28;20521;-88
2022/05/26 10:46:09;;;;;;;1.67;0.70;;;24.10;38.40;;;;;;5075848;28;20450;-88
2022/05/26 10:48:40;;;;;;;2.40;0.83;;;24.20;38.10;;;;;;5082332;28;20443;-87
2022/05/26 10:51:15;;;;;;;3.53;0.80;;;24.20;37.10;;;;;;5061268;28;20448;-87
2022/05/26 10:53:47;;;;;;;1.10;0.93;;;24.50;37.50;;;;;;5090462;28;20446;-88
2022/05/26 10:56:23;;;;;;;0.90;0.70;;;24.70;37.10;;;;;;5050636;28;20598;-88
2022/05/26 10:58:55;;;;;;;2.50;1.13;;;24.80;36.80;;;;;;5074107;28;20828;-86
2022/05/26 11:01:32;;;;;;;1.60;0.90;;;24.50;35.00;;;;;;5061233;28;20454;-88
2022/05/26 11:04:10;;;;;;;1.13;1.03;;;24.30;36.30;;;;;;5068000;28;20461;-88
2022/05/26 11:06:38;;;;;;;1.87;0.70;;;24.30;36.20;;;;;;5064069;28;20579;-87
2022/05/26 11:09:12;;;;;;;1.30;0.83;;;24.40;36.60;;;;;;5067504;28;20452;-89
2022/05/26 11:11:44;;;;;;;1.83;0.90;;;24.40;35.80;;;;;;5075500;28;20482;-89
2022/05/26 11:19:51;;;;;;;1.67;0.90;;;24.60;35.80;;;;;;5090815;28;20443;-89
2022/05/26 11:22:20;;;;;;;1.60;1.10;;;24.00;37.40;;;;;;5072733;28;20469;-88
2022/05/26 11:24:49;;;;;;;1.83;0.90;;;24.10;37.30;;;;;;5074436;28;20833;-89
2022/05/26 11:27:26;;;;;;;2.17;0.90;;;23.90;37.10;;;;;;5088992;28;20471;-90
2022/05/26 11:29:57;;;;;;;1.80;1.03;;;24.00;38.00;;;;;;5057897;28;20439;-87
2022/05/26 11:38:07;;;;;;;3.10;0.90;;;24.30;37.00;;;;;;5086250;28;20486;-88
2022/05/26 11:40:42;;;;;;;0.87;0.73;;;24.80;37.80;;;;;;5093227;28;20919;-88
2022/05/26 11:43:11;;;;;;;1.00;0.80;;;25.30;36.80;;;;;;5063635;28;20447;-88
2022/05/26 11:45:49;;;;;;;3.60;1.00;;;25.60;34.30;;;;;;5074008;28;20538;-90
2022/05/26 11:48:45;;;;;;;1.93;0.80;;;25.60;35.50;;;;;;5076769;28;20456;-87
2022/05/26 11:51:28;;;;;;;0.90;0.80;;;25.70;35.60;;;;;;5036801;28;20456;-87
2022/05/26 11:53:56;;;;;;;1.40;1.00;;;25.60;35.20;;;;;;5080727;28;20479;-90
2022/05/26 11:56:44;;;;;;;1.13;0.87;;;25.40;35.80;;;;;;5081598;28;21021;-89
2022/05/26 11:59:41;;;;;;;1.37;0.80;;;25.60;36.00;;;;;;5053132;28;20508;-88
2022/05/26 12:02:30;;;;;;;0.90;0.80;;;26.00;36.60;;;;;;5079614;28;20434;-87
2022/05/26 12:04:57;;;;;;;0.80;0.73;;;25.90;34.80;;;;;;5065561;28;20807;-87
2022/05/26 12:07:39;;;;;;;1.10;1.00;;;25.50;35.40;;;;;;5080598;28;20479;-88
2022/05/26 12:10:21;;;;;;;1.23;0.97;;;25.30;35.60;;;;;;5057273;28;20508;-87
2022/05/26 12:12:49;;;;;;;0.80;0.73;;;24.80;36.30;;;;;;5095684;28;21110;-86
2022/05/26 12:15:21;;;;;;;1.00;0.87;;;24.80;37.20;;;;;;5076561;28;20849;-88
2022/05/26 12:17:50;;;;;;;0.97;0.87;;;24.60;38.00;;;;;;5064939;28;20458;-87
2022/05/26 12:20:38;;;;;;;2.03;1.00;;;24.50;37.50;;;;;;5087237;28;20453;-87
2022/05/26 12:23:25;;;;;;;1.47;0.90;;;24.30;38.50;;;;;;5082407;28;20446;-87
2022/05/26 12:26:21;;;;;;;1.30;0.90;;;24.30;38.70;;;;;;5060017;28;20967;-87
2022/05/26 12:28:48;;;;;;;3.10;1.13;;;24.30;39.00;;;;;;5077858;28;20481;-88
2022/05/26 12:31:17;;;;;;;2.40;0.83;;;24.40;38.10;;;;;;5062770;28;20465;-88
2022/05/26 12:34:05;;;;;;;3.20;0.83;;;24.20;38.60;;;;;;5083739;28;21455;-88
2022/05/26 12:36:57;;;;;;;1.27;0.80;;;24.30;38.90;;;;;;5080733;28;21016;-88
2022/05/26 12:40:00;;;;;;;1.00;0.80;;;24.40;38.80;;;;;;5077759;28;20459;-87
2022/05/26 12:42:42;;;;;;;1.87;0.90;;;24.70;38.60;;;;;;5061401;28;20970;-87
2022/05/26 12:45:37;;;;;;;0.80;0.80;;;24.60;38.20;;;;;;5096133;28;21065;-89
2022/05/26 12:48:19;;;;;;;1.73;1.00;;;24.90;38.50;;;;;;5065964;28;21166;-87
2022/05/26 12:50:46;;;;;;;1.20;1.00;;;24.80;38.70;;;;;;5094208;28;20478;-87
2022/05/26 12:53:18;;;;;;;0.97;0.87;;;24.90;38.30;;;;;;5075495;28;20448;-88
2022/05/26 12:55:49;;;;;;;2.50;0.97;;;24.70;38.80;;;;;;5091212;28;20452;-87
2022/05/26 12:58:20;;;;;;;2.23;1.20;;;24.80;38.60;;;;;;5095455;28;20490;-86
2022/05/26 13:00:49;;;;;;;1.50;1.00;;;24.60;38.70;;;;;;5073228;28;20514;-87
2022/05/26 13:03:28;;;;;;;1.00;0.90;;;24.60;39.30;;;;;;5075434;28;21059;-88
2022/05/26 13:06:00;;;;;;;1.40;1.10;;;24.70;39.60;;;;;;5073067;28;20481;-89
2022/05/26 13:08:31;;;;;;;1.73;1.03;;;24.50;38.90;;;;;;5078100;28;20478;-87
2022/05/26 13:11:03;;;;;;;1.60;1.20;;;24.40;39.10;;;;;;5093486;28;20482;-88
2022/05/26 13:13:39;;;;;;;1.83;1.20;;;24.30;39.60;;;;;;5075978;28;20447;-88
2022/05/26 13:16:27;;;;;;;1.67;1.33;;;24.50;38.30;;;;;;5073613;28;20463;-87
2022/05/26 13:19:06;;;;;;;1.97;1.17;;;24.50;39.70;;;;;;5095978;27;20991;-87
2022/05/26 13:21:33;;;;;;;2.00;1.43;;;25.10;39.90;;;;;;5076199;28;20439;-87
2022/05/26 13:24:01;;;;;;;2.20;1.40;;;25.30;39.40;;;;;;5076314;28;20997;-88
2022/05/26 13:26:28;;;;;;;4.60;2.20;;;25.50;39.00;;;;;;5096571;28;20579;-87
2022/05/26 13:28:58;;;;;;;2.20;1.27;;;25.40;38.20;;;;;;5072193;28;20517;-88
2022/05/26 13:34:15;;;;;;;1.20;1.10;;;25.90;37.40;;;;;;5071334;28;20456;-87
2022/05/26 13:36:44;;;;;;;1.70;1.30;;;26.10;36.60;;;;;;5072743;28;21141;-86
2022/05/26 13:39:13;;;;;;;1.60;1.00;;;26.00;36.50;;;;;;5080024;28;20447;-87
2022/05/26 13:41:41;;;;;;;1.23;1.13;;;26.20;35.50;;;;;;5092078;28;20981;-89
2022/05/26 13:44:13;;;;;;;1.20;1.00;;;26.40;35.30;;;;;;5056477;28;20570;-87
2022/05/26 13:46:43;;;;;;;6.30;1.10;;;26.60;35.00;;;;;;5094620;28;20466;-88
2022/05/26 13:49:28;;;;;;;1.40;1.13;;;26.80;34.50;;;;;;5076500;28;20483;-87
2022/05/26 13:51:55;;;;;;;1.23;1.13;;;26.80;34.20;;;;;;5079812;28;20471;-88
2022/05/26 13:54:38;;;;;;;1.23;0.97;;;27.20;34.50;;;;;;5092104;28;20463;-86